createdAt,value
2022-12-08T17:47:41.811Z,31.88
2022-12-08T17:50:11.997Z,37.88
2022-12-08T17:52:41.846Z,37.83
2022-12-08T17:55:12.219Z,40.13
2022-12-08T17:57:42.436Z,37.42
2022-12-08T18:00:14.326Z,63.20
2022-12-08T18:02:45.479Z,60.33
2022-12-08T18:05:16.882Z,51.22
2022-12-08T18:07:46.542Z,51.20
2022-12-08T18:10:16.842Z,54.70
2022-12-08T18:12:46.995Z,47.00
2022-12-08T18:15:21.527Z,47.80
2022-12-08T18:17:53.088Z,46.38
2022-12-08T18:20:22.921Z,46.50
2022-12-08T18:22:52.762Z,49.63
2022-12-08T18:25:22.774Z,50.30
2022-12-08T18:27:55.468Z,54.00
2022-12-08T18:30:26.366Z,51.35
2022-12-08T18:32:57.698Z,47.67
2022-12-08T18:35:28.694Z,53.40
2022-12-08T18:37:58.445Z,45.72
2022-12-08T18:40:28.703Z,54.83
2022-12-08T18:42:58.696Z,56.53
2022-12-08T18:45:28.242Z,50.67
2022-12-08T18:47:59.308Z,47.60
2022-12-08T18:50:29.612Z,44.45
2022-12-08T18:52:59.203Z,52.13
2022-12-08T18:55:29.031Z,48.08
2022-12-08T18:58:14.433Z,55.15
2022-12-08T19:00:44.301Z,59.05
2022-12-08T19:03:15.366Z,56.05
2022-12-08T19:05:45.131Z,54.58
2022-12-08T19:08:14.795Z,55.60
2022-12-08T19:10:44.543Z,51.95
2022-12-08T19:13:14.183Z,53.47
2022-12-08T19:15:43.995Z,48.08
2022-12-08T19:18:14.899Z,51.35
2022-12-08T19:20:44.621Z,51.55
2022-12-08T19:23:15.230Z,49.67
2022-12-08T19:25:44.949Z,49.70
2022-12-08T19:28:14.504Z,53.08
2022-12-08T19:30:44.316Z,46.03
2022-12-08T19:33:15.341Z,51.42
2022-12-08T19:35:49.053Z,46.53
2022-12-08T19:38:21.961Z,46.47
2022-12-08T19:41:08.971Z,46.40
2022-12-08T19:43:56.006Z,44.80
2022-12-08T19:46:26.146Z,46.15
2022-12-08T19:48:58.344Z,50.63
2022-12-08T19:51:28.552Z,53.22
2022-12-08T19:53:58.092Z,54.08
2022-12-08T19:56:27.634Z,47.72
2022-12-08T19:58:57.149Z,52.78
2022-12-08T20:01:27.111Z,47.33
2022-12-08T20:03:58.174Z,42.53
2022-12-08T20:06:28.607Z,52.70
2022-12-08T20:08:58.252Z,54.20
2022-12-08T20:11:27.788Z,46.78
2022-12-08T20:13:57.483Z,46.65
2022-12-08T20:16:27.088Z,48.25
2022-12-08T20:18:58.059Z,53.17
2022-12-08T20:21:27.664Z,53.63
2022-12-08T20:23:57.565Z,56.50
2022-12-08T20:26:27.129Z,52.75
2022-12-08T20:28:56.644Z,51.30
2022-12-08T20:31:30.296Z,54.40
2022-12-08T20:34:02.141Z,58.67
2022-12-08T20:36:32.285Z,42.58
2022-12-08T20:39:01.801Z,50.13
2022-12-08T20:41:36.134Z,46.60
2022-12-08T20:44:08.673Z,47.03
2022-12-08T20:46:39.165Z,45.38
2022-12-08T20:49:10.244Z,38.88
2022-12-08T20:51:40.048Z,41.83
2022-12-08T20:54:10.612Z,40.42
2022-12-08T20:56:48.099Z,38.85
2022-12-08T20:59:18.690Z,36.63
2022-12-08T21:01:48.478Z,38.10
2022-12-08T21:04:19.892Z,43.47
2022-12-08T21:06:49.969Z,37.72
2022-12-08T21:09:19.719Z,42.90
2022-12-08T21:11:49.306Z,42.70
2022-12-08T21:14:19.150Z,46.05
2022-12-08T21:16:49.871Z,40.72
2022-12-08T21:19:21.724Z,43.13
2022-12-08T21:21:51.636Z,36.30
2022-12-08T21:24:21.336Z,39.65
2022-12-08T21:26:51.022Z,41.30
2022-12-08T21:29:20.554Z,42.92
2022-12-08T21:31:50.263Z,39.28
2022-12-08T21:34:21.248Z,37.53
2022-12-08T21:36:50.799Z,42.08
2022-12-08T21:39:20.429Z,42.30
2022-12-08T21:42:07.475Z,38.47
2022-12-08T21:44:37.257Z,38.95
2022-12-08T21:47:07.524Z,41.75
2022-12-08T21:49:38.507Z,40.47
2022-12-08T21:52:08.205Z,46.65
2022-12-08T21:54:38.142Z,41.63
2022-12-08T21:57:07.820Z,34.45
2022-12-08T21:59:37.470Z,38.90
2022-12-08T22:02:08.353Z,40.72
2022-12-08T22:04:40.201Z,43.13
2022-12-08T22:07:11.153Z,37.08
2022-12-08T22:09:40.768Z,39.72
2022-12-08T22:12:11.854Z,35.80
2022-12-08T22:14:41.579Z,34.42
2022-12-08T22:17:11.425Z,34.95
2022-12-08T22:19:42.694Z,43.10
2022-12-08T22:22:12.472Z,40.80
2022-12-08T22:24:42.060Z,47.92
2022-12-08T22:27:11.657Z,54.75
2022-12-08T22:29:41.460Z,51.78
2022-12-08T22:32:11.585Z,47.05
2022-12-08T22:34:42.838Z,46.03
2022-12-08T22:37:12.583Z,55.38
2022-12-08T22:39:42.161Z,57.65
2022-12-08T22:42:11.925Z,59.70
2022-12-08T22:44:41.544Z,58.97
2022-12-08T22:47:11.542Z,57.80
2022-12-08T22:49:42.699Z,55.85
2022-12-08T22:52:12.455Z,62.15
2022-12-08T22:54:41.971Z,55.80
2022-12-08T22:57:11.700Z,57.17
2022-12-08T22:59:41.419Z,64.07
2022-12-08T23:02:11.634Z,56.38
2022-12-08T23:04:42.723Z,65.15
2022-12-08T23:07:12.608Z,57.78
2022-12-08T23:09:42.223Z,54.22
2022-12-08T23:12:11.763Z,51.95
2022-12-08T23:14:41.488Z,56.58
2022-12-08T23:17:11.785Z,56.17
2022-12-08T23:19:43.152Z,53.38
2022-12-08T23:22:12.680Z,49.05
2022-12-08T23:24:42.795Z,53.85
2022-12-08T23:27:12.396Z,53.97
2022-12-08T23:29:42.194Z,48.72
2022-12-08T23:32:11.821Z,52.70
2022-12-08T23:34:42.743Z,52.58
2022-12-08T23:37:12.255Z,54.50
2022-12-08T23:39:41.846Z,58.03
2022-12-08T23:42:11.681Z,54.38
2022-12-08T23:44:41.488Z,61.30
2022-12-08T23:47:11.121Z,57.92
2022-12-08T23:49:42.247Z,60.80
2022-12-08T23:52:13.891Z,61.72
2022-12-08T23:54:44.444Z,57.42
2022-12-08T23:57:14.044Z,50.17
2022-12-08T23:59:43.669Z,47.03
